Time;durP1;ratioP1;P1;durP2;ratioP2;P2;SDS_P1;SDS_P2;PMS_P1;PMS_P2;Temp;Humidity;BMP_temperature;BMP_pressure;BME280_temperature;BME280_humidity;BME280_pressure;Samples;Min_cycle;Max_cycle;Signal;HPM_P1;HPM_P2
2023/12/15 00:00:16;;;;;;;25.55;14.35;;;6.80;1.00;;;;;;6228812;23;20131;-87
2023/12/15 00:02:42;;;;;;;30.33;14.23;;;6.80;1.00;;;;;;6226795;23;20146;-86
2023/12/15 00:05:08;;;;;;;20.55;13.05;;;6.80;1.00;;;;;;6228496;23;20188;-86
2023/12/15 00:07:34;;;;;;;24.93;13.80;;;6.80;1.00;;;;;;6227985;23;20150;-87
2023/12/15 00:09:59;;;;;;;21.53;12.37;;;6.80;1.00;;;;;;6224601;23;20385;-86
2023/12/15 00:12:25;;;;;;;25.93;14.60;;;6.80;1.00;;;;;;6224756;23;20161;-86
2023/12/15 00:14:51;;;;;;;22.83;14.43;;;6.80;1.00;;;;;;6226048;23;20251;-86
2023/12/15 00:17:17;;;;;;;21.00;13.03;;;6.80;1.00;;;;;;6226421;23;20159;-87
2023/12/15 00:19:44;;;;;;;20.90;13.93;;;6.90;1.00;;;;;;6228832;23;20245;-86
2023/12/15 00:22:09;;;;;;;26.15;13.43;;;6.90;1.00;;;;;;6222944;23;20237;-86
2023/12/15 00:24:35;;;;;;;20.07;13.23;;;6.90;1.00;;;;;;6219070;23;20602;-86
2023/12/15 00:27:01;;;;;;;18.77;12.00;;;6.90;1.00;;;;;;6220082;23;20174;-85
2023/12/15 00:29:27;;;;;;;20.57;13.07;;;6.90;1.00;;;;;;6220500;23;20146;-85
2023/12/15 00:31:53;;;;;;;20.88;12.55;;;6.90;1.00;;;;;;6217575;23;20162;-85
2023/12/15 00:34:18;;;;;;;26.60;13.83;;;6.90;1.00;;;;;;6219372;23;20153;-85
2023/12/15 00:36:44;;;;;;;18.17;11.50;;;6.90;1.00;;;;;;6218341;23;20190;-86
2023/12/15 00:39:10;;;;;;;24.30;12.57;;;6.90;1.00;;;;;;6218220;23;20217;-86
2023/12/15 00:41:36;;;;;;;28.37;12.53;;;7.00;1.00;;;;;;6218831;23;20162;-86
2023/12/15 00:44:05;;;;;;;22.27;13.40;;;7.00;1.00;;;;;;6217943;23;20165;-85
2023/12/15 00:46:31;;;;;;;23.85;11.98;;;7.00;1.00;;;;;;6219671;23;20214;-86
2023/12/15 00:48:59;;;;;;;17.35;11.43;;;7.00;1.00;;;;;;6218025;23;20181;-85
2023/12/15 00:51:28;;;;;;;20.88;12.68;;;7.00;1.00;;;;;;6218816;23;20165;-86
2023/12/15 00:53:54;;;;;;;19.80;11.82;;;7.00;1.00;;;;;;6218460;23;20209;-86
2023/12/15 00:56:19;;;;;;;18.33;12.77;;;7.00;1.00;;;;;;6218803;23;20253;-86
2023/12/15 00:58:45;;;;;;;25.27;12.53;;;7.10;1.00;;;;;;6217905;23;20189;-85
2023/12/15 01:01:11;;;;;;;22.57;11.90;;;7.10;1.00;;;;;;6219232;23;20168;-86
2023/12/15 01:03:37;;;;;;;20.63;12.87;;;7.10;1.00;;;;;;6218871;23;20212;-86
2023/12/15 01:06:03;;;;;;;23.63;11.93;;;7.10;1.00;;;;;;6217241;23;20190;-86
2023/12/15 01:08:28;;;;;;;20.43;12.57;;;7.10;1.00;;;;;;6230437;23;20633;-86
2023/12/15 01:10:54;;;;;;;21.17;12.60;;;7.10;1.00;;;;;;6229864;23;20493;-86
2023/12/15 01:13:19;;;;;;;18.93;12.77;;;7.10;1.00;;;;;;6230991;23;20206;-86
2023/12/15 01:15:45;;;;;;;25.33;14.00;;;7.10;1.00;;;;;;6228345;23;20178;-86
2023/12/15 01:18:11;;;;;;;25.47;13.07;;;7.20;1.00;;;;;;6228633;23;20169;-86
2023/12/15 01:20:36;;;;;;;29.57;14.23;;;7.20;1.00;;;;;;6229490;23;20153;-85
2023/12/15 01:23:02;;;;;;;24.00;13.13;;;7.20;1.00;;;;;;6230431;23;20617;-87
2023/12/15 01:25:27;;;;;;;23.20;13.87;;;7.20;1.00;;;;;;6228708;23;20195;-84
2023/12/15 01:27:53;;;;;;;24.10;14.63;;;7.20;1.00;;;;;;6228913;23;20161;-86
2023/12/15 01:30:18;;;;;;;19.50;12.97;;;7.20;1.00;;;;;;6227558;23;20210;-87
2023/12/15 01:32:44;;;;;;;25.80;14.40;;;7.30;1.00;;;;;;6229118;23;20154;-86
2023/12/15 01:35:09;;;;;;;30.50;14.03;;;7.30;1.00;;;;;;6228905;23;20193;-86
2023/12/15 01:37:35;;;;;;;28.03;14.23;;;7.20;1.00;;;;;;6230016;23;20146;-86
2023/12/15 01:40:01;;;;;;;24.93;14.93;;;7.30;1.00;;;;;;6228992;23;20599;-87
2023/12/15 01:42:26;;;;;;;24.80;13.63;;;7.30;1.00;;;;;;6230055;23;20174;-87
2023/12/15 01:44:52;;;;;;;23.73;13.60;;;7.30;1.00;;;;;;6228117;23;20174;-86
2023/12/15 01:47:18;;;;;;;28.40;14.77;;;7.30;1.00;;;;;;6224973;23;20205;-86
2023/12/15 01:49:46;;;;;;;24.05;13.00;;;7.30;1.00;;;;;;6229868;23;20401;-87
2023/12/15 01:52:12;;;;;;;34.10;15.77;;;7.30;1.00;;;;;;6225002;23;20150;-86
2023/12/15 01:54:37;;;;;;;20.70;13.87;;;7.30;1.00;;;;;;6218723;23;20222;-86
2023/12/15 01:57:04;;;;;;;22.53;14.50;;;7.30;1.00;;;;;;6218937;23;20162;-86
2023/12/15 01:59:42;;;;;;;25.37;14.70;;;7.30;1.00;;;;;;6217642;23;20158;-85
2023/12/15 02:02:08;;;;;;;21.85;13.23;;;7.30;1.00;;;;;;6218345;23;20389;-86
2023/12/15 02:04:33;;;;;;;20.33;14.77;;;7.20;1.00;;;;;;6219653;23;20233;-85
2023/12/15 02:06:59;;;;;;;20.83;12.30;;;7.30;1.00;;;;;;6218481;23;20217;-85
2023/12/15 02:09:24;;;;;;;27.53;13.43;;;7.30;1.00;;;;;;6219044;23;20158;-86
2023/12/15 02:11:50;;;;;;;19.93;14.77;;;7.30;1.00;;;;;;6219682;23;20154;-86
2023/12/15 02:14:15;;;;;;;23.30;14.20;;;7.30;1.00;;;;;;6229189;23;20157;-86
2023/12/15 02:16:41;;;;;;;30.67;15.73;;;7.30;1.00;;;;;;6233878;23;20253;-86
2023/12/15 02:19:06;;;;;;;23.30;13.90;;;7.30;1.00;;;;;;6233891;23;20732;-86
2023/12/15 02:21:35;;;;;;;24.93;15.07;;;7.30;1.00;;;;;;6233898;23;20173;-87
2023/12/15 02:24:00;;;;;;;24.23;14.50;;;7.30;1.00;;;;;;6234093;23;20205;-87
2023/12/15 02:26:26;;;;;;;25.87;16.07;;;7.30;1.00;;;;;;6226885;23;20189;-86
2023/12/15 02:28:51;;;;;;;30.23;16.30;;;7.30;1.00;;;;;;6228700;23;20161;-88
2023/12/15 02:31:21;;;;;;;22.37;16.50;;;7.30;1.00;;;;;;6227968;23;20150;-88
2023/12/15 02:33:46;;;;;;;33.70;16.95;;;7.20;1.00;;;;;;6226494;23;20157;-87
2023/12/15 02:36:22;;;;;;;23.90;16.20;;;7.20;1.00;;;;;;6228403;23;20186;-86
2023/12/15 02:38:48;;;;;;;25.90;16.40;;;7.20;1.00;;;;;;6229899;23;20150;-86
2023/12/15 02:41:14;;;;;;;28.93;16.93;;;7.20;1.00;;;;;;6226636;23;20711;-87
2023/12/15 02:43:40;;;;;;;27.60;16.07;;;7.20;1.00;;;;;;6228824;23;20876;-87
2023/12/15 02:46:06;;;;;;;31.57;18.00;;;7.30;1.00;;;;;;6229482;23;20569;-87
2023/12/15 02:48:32;;;;;;;25.48;15.00;;;7.30;1.00;;;;;;6227435;23;20385;-86
2023/12/15 02:50:58;;;;;;;25.70;15.40;;;7.30;1.00;;;;;;6252978;23;20150;-85
2023/12/15 02:53:23;;;;;;;30.33;17.70;;;7.30;1.00;;;;;;6228940;23;20385;-86
2023/12/15 02:55:49;;;;;;;31.63;17.70;;;7.30;1.00;;;;;;6229251;23;20201;-87
2023/12/15 02:58:15;;;;;;;27.17;17.03;;;7.30;1.00;;;;;;6227210;23;20170;-86
2023/12/15 03:00:41;;;;;;;26.98;17.17;;;7.30;1.00;;;;;;6228400;23;20154;-86
2023/12/15 03:03:07;;;;;;;27.90;16.90;;;7.30;1.00;;;;;;6227916;23;20169;-86
2023/12/15 03:05:32;;;;;;;27.17;17.40;;;7.30;1.00;;;;;;6229747;23;20371;-87
2023/12/15 03:07:58;;;;;;;24.53;15.93;;;7.30;1.00;;;;;;6229310;23;20150;-86
2023/12/15 03:10:23;;;;;;;26.10;17.20;;;7.40;1.00;;;;;;6229947;23;20155;-87
2023/12/15 03:12:49;;;;;;;41.83;16.57;;;7.30;1.00;;;;;;6229546;23;20232;-86
2023/12/15 03:15:14;;;;;;;34.53;16.50;;;7.40;1.00;;;;;;6227040;23;20220;-86
2023/12/15 03:17:40;;;;;;;22.40;15.97;;;7.30;1.00;;;;;;6223787;23;20187;-87
2023/12/15 03:20:06;;;;;;;29.37;17.13;;;7.40;1.00;;;;;;6229932;23;20185;-86
2023/12/15 03:22:32;;;;;;;28.17;16.30;;;7.40;1.00;;;;;;6228744;23;20181;-86
2023/12/15 03:24:58;;;;;;;22.83;15.50;;;7.40;1.00;;;;;;6227543;23;20428;-85
2023/12/15 03:27:23;;;;;;;29.87;16.03;;;7.40;1.00;;;;;;6229410;23;20417;-84
2023/12/15 03:29:50;;;;;;;30.47;16.30;;;7.40;1.00;;;;;;6229859;23;20150;-84
2023/12/15 03:32:15;;;;;;;29.60;16.50;;;7.40;1.00;;;;;;6229826;23;20173;-84
2023/12/15 03:34:41;;;;;;;28.90;15.07;;;7.40;1.50;;;;;;6226828;23;20185;-86
2023/12/15 03:37:06;;;;;;;26.73;14.77;;;7.40;6.60;;;;;;6226413;23;20150;-86
2023/12/15 03:39:32;;;;;;;28.97;13.73;;;7.40;5.60;;;;;;6226290;23;20158;-86
2023/12/15 03:41:57;;;;;;;25.20;14.70;;;7.40;7.50;;;;;;6223475;23;20154;-86
2023/12/15 03:44:23;;;;;;;30.40;14.90;;;7.50;9.10;;;;;;6216919;23;20215;-87
2023/12/15 03:46:48;;;;;;;28.33;13.77;;;7.50;9.20;;;;;;6215905;23;20188;-86
2023/12/15 03:49:14;;;;;;;24.20;14.73;;;7.50;7.90;;;;;;6216984;23;20163;-86
2023/12/15 03:51:39;;;;;;;29.57;15.27;;;7.50;8.20;;;;;;6216357;23;20971;-87
2023/12/15 03:54:05;;;;;;;31.57;14.77;;;7.50;8.70;;;;;;6215895;23;20161;-86
2023/12/15 03:56:31;;;;;;;25.77;15.43;;;7.50;8.50;;;;;;6218308;23;20182;-85
2023/12/15 03:58:57;;;;;;;24.98;14.30;;;7.50;8.50;;;;;;6217562;23;20154;-86
2023/12/15 04:01:22;;;;;;;28.23;15.43;;;7.60;10.50;;;;;;6215676;23;20164;-86
2023/12/15 04:03:48;;;;;;;26.57;14.10;;;7.60;12.00;;;;;;6217929;23;20165;-87
2023/12/15 04:06:13;;;;;;;27.23;15.63;;;7.60;13.20;;;;;;6218261;23;20661;-85
2023/12/15 04:08:42;;;;;;;25.27;15.83;;;7.60;14.60;;;;;;6223899;23;20638;-87
2023/12/15 04:11:08;;;;;;;30.83;16.30;;;7.60;12.70;;;;;;6230251;23;20150;-87
2023/12/15 04:13:33;;;;;;;30.63;17.10;;;7.60;11.90;;;;;;6230030;23;20467;-87
2023/12/15 04:15:59;;;;;;;28.63;16.17;;;7.60;11.20;;;;;;6229051;23;20166;-87
2023/12/15 04:18:24;;;;;;;25.80;15.90;;;7.70;12.90;;;;;;6227931;23;20237;-88
2023/12/15 04:20:50;;;;;;;23.43;15.33;;;7.70;13.90;;;;;;6227494;23;20246;-88
2023/12/15 04:23:15;;;;;;;24.23;15.83;;;7.70;12.30;;;;;;6229522;23;20150;-88
2023/12/15 04:25:41;;;;;;;28.27;16.60;;;7.70;12.10;;;;;;6228386;23;20189;-88
2023/12/15 04:28:06;;;;;;;26.20;16.13;;;7.70;12.70;;;;;;6226867;23;20159;-86
2023/12/15 04:30:32;;;;;;;23.83;15.30;;;7.70;13.80;;;;;;6229485;23;20153;-87
2023/12/15 04:32:57;;;;;;;28.63;16.80;;;7.70;15.00;;;;;;6226502;23;20150;-87
2023/12/15 04:35:23;;;;;;;26.90;16.73;;;7.70;16.50;;;;;;6227930;23;20282;-87
2023/12/15 04:37:49;;;;;;;28.30;16.07;;;7.70;17.20;;;;;;6227310;23;20164;-87
2023/12/15 04:40:14;;;;;;;26.50;17.10;;;7.70;20.40;;;;;;6229366;23;20220;-87
2023/12/15 04:42:40;;;;;;;27.57;16.23;;;7.70;20.90;;;;;;6228970;23;20560;-86
2023/12/15 04:45:08;;;;;;;28.83;17.60;;;7.70;19.30;;;;;;6222338;23;20532;-87
2023/12/15 04:47:33;;;;;;;24.40;15.80;;;7.70;20.50;;;;;;6227604;23;20377;-88
2023/12/15 04:49:59;;;;;;;26.00;16.77;;;7.70;20.10;;;;;;6228321;23;20432;-87
2023/12/15 04:52:24;;;;;;;26.20;15.73;;;7.70;21.40;;;;;;6227726;23;20165;-86
2023/12/15 04:54:50;;;;;;;28.27;17.33;;;7.70;21.60;;;;;;6218043;23;20185;-86
2023/12/15 04:57:15;;;;;;;27.83;16.10;;;7.70;23.30;;;;;;6217104;23;20150;-86
2023/12/15 04:59:41;;;;;;;24.43;16.30;;;7.70;25.50;;;;;;6218024;23;20185;-87
2023/12/15 05:02:07;;;;;;;28.43;16.97;;;7.70;26.80;;;;;;6218291;23;20150;-86
2023/12/15 05:04:34;;;;;;;27.40;16.40;;;7.80;29.90;;;;;;6217768;23;20165;-87
2023/12/15 05:07:00;;;;;;;24.90;15.87;;;7.80;30.50;;;;;;6216854;23;20178;-86
2023/12/15 05:09:27;;;;;;;25.60;16.17;;;7.80;31.40;;;;;;6217643;23;20381;-86
2023/12/15 05:11:53;;;;;;;28.43;16.07;;;7.80;30.30;;;;;;6217094;23;20150;-86
2023/12/15 05:14:19;;;;;;;24.40;14.70;;;7.80;32.00;;;;;;6217555;23;20474;-85
2023/12/15 05:16:44;;;;;;;31.70;17.43;;;7.80;30.80;;;;;;6217345;23;20174;-85
2023/12/15 05:19:10;;;;;;;24.13;16.50;;;7.80;29.90;;;;;;6218641;23;20552;-86
2023/12/15 05:21:35;;;;;;;30.53;16.80;;;7.80;29.20;;;;;;6217518;23;20154;-86
2023/12/15 05:24:01;;;;;;;25.03;15.70;;;7.80;31.50;;;;;;6217021;23;20158;-86
2023/12/15 05:26:26;;;;;;;33.60;16.77;;;7.80;32.50;;;;;;6216997;23;20185;-86
2023/12/15 05:28:52;;;;;;;27.10;15.73;;;7.90;33.30;;;;;;6218134;23;20154;-86
2023/12/15 05:31:18;;;;;;;28.90;17.37;;;7.90;33.80;;;;;;6217200;23;20177;-85
2023/12/15 05:33:44;;;;;;;30.97;17.40;;;7.90;35.00;;;;;;6218122;23;20158;-87
2023/12/15 05:36:27;;;;;;;28.93;16.00;;;7.90;34.80;;;;;;6217504;23;20190;-86
2023/12/15 05:38:53;;;;;;;30.13;18.40;;;7.90;36.60;;;;;;6225434;23;20440;-87
2023/12/15 05:41:19;;;;;;;30.43;18.37;;;7.90;38.60;;;;;;6227988;23;20381;-87
2023/12/15 05:43:44;;;;;;;37.60;19.97;;;7.90;38.80;;;;;;6229602;23;20146;-87
2023/12/15 05:46:10;;;;;;;37.10;18.90;;;7.90;36.90;;;;;;6227083;23;20252;-86
2023/12/15 05:48:35;;;;;;;34.87;18.13;;;7.90;39.20;;;;;;6228624;23;20150;-88
2023/12/15 05:51:02;;;;;;;41.40;18.60;;;7.90;40.60;;;;;;6228455;23;20202;-87
2023/12/15 05:53:28;;;;;;;35.23;18.93;;;7.90;41.70;;;;;;6228319;23;20158;-87
2023/12/15 05:55:53;;;;;;;36.20;19.50;;;7.90;42.50;;;;;;6228258;23;20842;-87
2023/12/15 05:58:19;;;;;;;37.60;19.77;;;7.90;42.00;;;;;;6226906;23;20158;-87
2023/12/15 06:00:45;;;;;;;37.30;20.53;;;7.90;44.60;;;;;;6227916;23;20150;-86
2023/12/15 06:03:10;;;;;;;36.53;20.03;;;8.00;46.30;;;;;;6225517;23;20385;-86
2023/12/15 06:05:36;;;;;;;42.80;21.47;;;8.00;46.40;;;;;;6226047;23;20193;-84
2023/12/15 06:08:02;;;;;;;43.47;21.27;;;8.00;46.20;;;;;;6226762;23;20220;-84
2023/12/15 06:10:27;;;;;;;42.13;21.53;;;8.00;48.70;;;;;;6228458;23;20461;-84
2023/12/15 06:12:53;;;;;;;43.17;22.20;;;8.00;49.20;;;;;;6227435;23;20150;-85
2023/12/15 06:15:19;;;;;;;45.90;22.60;;;8.00;48.30;;;;;;6226129;23;20181;-85
2023/12/15 06:17:44;;;;;;;43.30;20.97;;;8.00;48.60;;;;;;6226653;23;20153;-84
2023/12/15 06:20:12;;;;;;;57.00;23.27;;;8.00;48.00;;;;;;6226184;23;20177;-84
2023/12/15 06:22:38;;;;;;;56.13;23.93;;;8.00;48.00;;;;;;6226639;23;20155;-84
2023/12/15 06:25:04;;;;;;;48.87;25.63;;;8.00;47.30;;;;;;6225053;23;20781;-85
2023/12/15 06:27:31;;;;;;;49.20;22.87;;;8.00;49.60;;;;;;6224620;23;20189;-85
2023/12/15 06:29:57;;;;;;;45.33;21.48;;;8.00;51.00;;;;;;6225237;23;20404;-83
2023/12/15 06:32:22;;;;;;;53.80;22.80;;;8.00;50.40;;;;;;6225540;23;20154;-84
2023/12/15 06:34:48;;;;;;;50.10;23.97;;;8.00;52.20;;;;;;6216204;23;20216;-86
2023/12/15 06:37:13;;;;;;;49.70;25.60;;;8.00;51.60;;;;;;6215211;23;20146;-83
2023/12/15 06:39:39;;;;;;;47.93;25.63;;;8.00;52.90;;;;;;6211296;23;20162;-83
2023/12/15 06:42:04;;;;;;;52.80;23.70;;;8.10;53.90;;;;;;6213391;23;20629;-84
2023/12/15 06:44:31;;;;;;;57.43;25.60;;;8.10;54.60;;;;;;6214625;23;20228;-84
2023/12/15 06:46:56;;;;;;;55.63;25.33;;;8.10;52.90;;;;;;6214528;23;20177;-84
2023/12/15 06:49:30;;;;;;;53.03;25.03;;;8.10;54.70;;;;;;6215166;23;20439;-84
2023/12/15 06:51:59;;;;;;;54.80;24.67;;;8.10;54.80;;;;;;6213561;23;20598;-83
2023/12/15 06:54:24;;;;;;;51.40;25.10;;;8.10;54.50;;;;;;6214155;23;20162;-84
2023/12/15 06:56:50;;;;;;;48.37;22.40;;;8.10;55.50;;;;;;6214864;23;20440;-84
2023/12/15 06:59:15;;;;;;;53.97;25.90;;;8.10;54.40;;;;;;6215772;23;20212;-86
2023/12/15 07:01:41;;;;;;;46.30;23.40;;;8.10;52.00;;;;;;6214693;23;20154;-87
2023/12/15 07:04:06;;;;;;;50.27;24.53;;;8.10;55.20;;;;;;6215896;23;20150;-86
2023/12/15 07:06:32;;;;;;;48.27;25.67;;;8.10;54.90;;;;;;6215455;23;20235;-87
2023/12/15 07:08:58;;;;;;;48.70;25.47;;;8.10;55.50;;;;;;6218250;23;20178;-86
2023/12/15 07:11:24;;;;;;;48.43;23.80;;;8.10;56.50;;;;;;6215079;23;20158;-87
2023/12/15 07:13:50;;;;;;;53.10;24.00;;;8.10;56.20;;;;;;6214470;23;20767;-84
2023/12/15 07:16:16;;;;;;;53.07;24.83;;;8.20;56.20;;;;;;6215591;23;20404;-84
2023/12/15 07:18:41;;;;;;;48.37;23.90;;;8.20;55.60;;;;;;6215520;23;20535;-84
2023/12/15 07:21:07;;;;;;;55.57;25.13;;;8.20;57.20;;;;;;6215761;23;20158;-84
2023/12/15 07:23:36;;;;;;;52.27;24.57;;;8.20;56.60;;;;;;6217555;23;20210;-83
2023/12/15 07:26:02;;;;;;;52.77;24.47;;;8.20;55.60;;;;;;6221563;23;20237;-83
2023/12/15 07:28:27;;;;;;;45.37;23.27;;;8.30;57.40;;;;;;6219584;23;20378;-82
2023/12/15 07:30:53;;;;;;;48.07;23.97;;;8.40;55.90;;;;;;6217506;23;20480;-84
2023/12/15 07:33:18;;;;;;;42.40;22.30;;;8.40;52.00;;;;;;6218969;23;20157;-83
2023/12/15 07:35:44;;;;;;;47.43;22.60;;;8.50;45.30;;;;;;6217491;23;20275;-84
2023/12/15 07:38:09;;;;;;;47.90;23.50;;;8.60;38.70;;;;;;6218923;23;20161;-84
2023/12/15 07:40:35;;;;;;;47.60;22.03;;;8.60;32.80;;;;;;6219689;23;20154;-82
2023/12/15 07:43:01;;;;;;;47.13;23.20;;;8.60;28.60;;;;;;6220329;23;20707;-82
2023/12/15 07:45:27;;;;;;;45.67;22.60;;;8.60;23.60;;;;;;6219839;23;20847;-83
2023/12/15 07:47:54;;;;;;;59.10;24.23;;;8.60;22.50;;;;;;6217431;23;20774;-83
2023/12/15 07:50:20;;;;;;;56.37;22.70;;;8.60;18.60;;;;;;6217938;23;20698;-84
2023/12/15 07:52:45;;;;;;;50.50;23.27;;;8.60;17.80;;;;;;6218799;23;20389;-82
2023/12/15 07:55:11;;;;;;;55.43;24.90;;;8.60;17.20;;;;;;6220022;23;20398;-84
2023/12/15 07:57:36;;;;;;;47.83;24.50;;;8.60;14.00;;;;;;6220313;23;20528;-82
2023/12/15 08:00:02;;;;;;;49.67;23.57;;;8.60;16.60;;;;;;6218572;23;20161;-83
2023/12/15 08:02:31;;;;;;;52.03;25.80;;;8.60;17.40;;;;;;6220133;23;20196;-83
2023/12/15 08:04:56;;;;;;;55.10;27.67;;;8.60;16.70;;;;;;6218871;23;20405;-85
2023/12/15 08:07:22;;;;;;;46.27;25.10;;;8.70;15.10;;;;;;6219969;23;20232;-86
2023/12/15 08:09:47;;;;;;;52.73;27.13;;;8.80;12.70;;;;;;6220085;23;20146;-86
2023/12/15 08:12:13;;;;;;;41.67;24.93;;;8.80;11.20;;;;;;6221376;23;20177;-85
2023/12/15 08:14:39;;;;;;;50.40;25.53;;;8.80;5.30;;;;;;6221990;23;20210;-85
2023/12/15 08:17:04;;;;;;;47.70;25.47;;;8.80;1.60;;;;;;6222541;23;20208;-85
2023/12/15 08:19:31;;;;;;;58.80;25.43;;;8.90;1.00;;;;;;6212936;23;20153;-86
2023/12/15 08:21:57;;;;;;;53.43;23.90;;;8.90;1.00;;;;;;6210988;23;20522;-85
2023/12/15 08:24:23;;;;;;;53.07;24.83;;;8.90;1.00;;;;;;6207890;23;20464;-85
2023/12/15 08:26:49;;;;;;;53.97;24.90;;;8.90;1.00;;;;;;6213683;23;20449;-86
2023/12/15 08:29:15;;;;;;;49.57;23.63;;;8.80;1.00;;;;;;6217224;23;20547;-85
2023/12/15 08:31:40;;;;;;;49.07;24.90;;;8.80;1.00;;;;;;6214566;23;20377;-86
2023/12/15 08:34:06;;;;;;;54.43;24.60;;;8.90;1.00;;;;;;6212734;23;20165;-85
2023/12/15 08:36:31;;;;;;;52.70;24.23;;;8.90;1.00;;;;;;6214855;23;20540;-84
2023/12/15 08:38:57;;;;;;;56.87;25.13;;;8.90;1.00;;;;;;6215115;23;20591;-83
2023/12/15 08:41:22;;;;;;;49.23;24.57;;;8.90;1.00;;;;;;6223830;23;20147;-86
2023/12/15 08:43:48;;;;;;;58.20;25.77;;;9.00;1.00;;;;;;6222663;23;20154;-85
2023/12/15 08:46:13;;;;;;;48.10;24.57;;;9.00;1.00;;;;;;6220572;23;20563;-85
2023/12/15 08:48:39;;;;;;;50.10;26.33;;;9.00;1.00;;;;;;6220376;23;20234;-85
2023/12/15 08:51:04;;;;;;;44.50;22.70;;;9.00;1.00;;;;;;6221799;23;20157;-86
2023/12/15 08:53:30;;;;;;;47.40;25.60;;;9.00;1.00;;;;;;6220863;23;20146;-85
2023/12/15 08:55:55;;;;;;;55.17;25.97;;;9.10;1.00;;;;;;6223836;23;20230;-86
2023/12/15 08:58:23;;;;;;;48.10;24.30;;;9.10;1.00;;;;;;6223501;23;20158;-87
2023/12/15 09:00:48;;;;;;;45.03;22.83;;;9.10;1.00;;;;;;6217435;23;20168;-86
2023/12/15 09:03:14;;;;;;;49.37;23.27;;;9.10;1.00;;;;;;6225915;23;20749;-87
2023/12/15 09:05:40;;;;;;;56.80;24.13;;;9.10;1.00;;;;;;6221426;23;20638;-85
2023/12/15 09:08:05;;;;;;;54.33;25.00;;;9.10;1.00;;;;;;6219590;23;20153;-84
2023/12/15 09:10:33;;;;;;;47.23;24.03;;;9.10;1.00;;;;;;6219408;23;20205;-86
2023/12/15 09:13:01;;;;;;;54.67;25.33;;;9.10;1.00;;;;;;6217101;23;20206;-85
2023/12/15 09:15:27;;;;;;;45.90;23.50;;;9.10;1.00;;;;;;6218407;23;20423;-86
2023/12/15 09:17:52;;;;;;;49.90;25.93;;;9.10;1.00;;;;;;6219175;23;20422;-88
2023/12/15 09:20:18;;;;;;;49.43;22.90;;;9.10;1.00;;;;;;6222374;23;20146;-86
2023/12/15 09:22:45;;;;;;;58.47;25.40;;;9.20;1.00;;;;;;6221152;23;20151;-86
2023/12/15 09:25:10;;;;;;;46.00;22.40;;;9.20;1.00;;;;;;6219316;23;20649;-85
2023/12/15 09:27:36;;;;;;;58.30;26.03;;;9.10;1.00;;;;;;6215490;23;20421;-86
2023/12/15 09:30:01;;;;;;;50.40;25.53;;;9.20;1.00;;;;;;6216089;23;20151;-85
2023/12/15 09:32:27;;;;;;;46.70;24.07;;;9.20;1.00;;;;;;6213861;23;20146;-85
2023/12/15 09:34:53;;;;;;;49.70;22.67;;;9.20;1.00;;;;;;6217689;23;20218;-85
2023/12/15 09:37:19;;;;;;;49.20;24.50;;;9.30;1.00;;;;;;6220700;23;20386;-84
2023/12/15 09:39:44;;;;;;;51.63;23.30;;;9.30;1.00;;;;;;6218324;23;20158;-85
2023/12/15 09:42:10;;;;;;;49.50;25.17;;;9.40;1.00;;;;;;6219422;23;20161;-85
2023/12/15 09:44:35;;;;;;;61.47;25.73;;;9.50;1.00;;;;;;6215579;23;20590;-85
2023/12/15 09:47:01;;;;;;;55.40;24.70;;;9.50;1.00;;;;;;6219881;23;20178;-84
2023/12/15 09:49:31;;;;;;;57.50;23.50;;;9.60;1.00;;;;;;6219949;23;20150;-85
2023/12/15 09:52:01;;;;;;;58.10;25.00;;;9.60;1.00;;;;;;6219126;23;20465;-84
2023/12/15 09:54:27;;;;;;;53.83;25.73;;;9.60;1.00;;;;;;6219483;23;20813;-84
2023/12/15 09:56:53;;;;;;;56.73;27.40;;;9.70;1.00;;;;;;6218967;23;20377;-85
2023/12/15 09:59:19;;;;;;;60.30;25.73;;;9.70;1.00;;;;;;6217506;23;20396;-85
2023/12/15 10:01:45;;;;;;;55.53;25.10;;;9.80;1.00;;;;;;6217865;23;20181;-85
2023/12/15 10:04:10;;;;;;;51.07;24.30;;;9.80;1.00;;;;;;6218989;23;20369;-84
2023/12/15 10:06:37;;;;;;;66.07;26.77;;;9.90;1.00;;;;;;6219191;23;20548;-84
2023/12/15 10:09:12;;;;;;;62.40;27.83;;;10.00;1.00;;;;;;6216980;23;20161;-84
2023/12/15 10:11:39;;;;;;;64.83;26.30;;;10.00;1.00;;;;;;6219768;23;20354;-84
2023/12/15 10:14:07;;;;;;;62.97;28.33;;;10.10;1.00;;;;;;6219863;23;20381;-84
2023/12/15 10:16:37;;;;;;;62.70;24.90;;;10.10;1.00;;;;;;6221871;23;20420;-84
2023/12/15 10:19:04;;;;;;;53.17;23.63;;;10.20;1.00;;;;;;6219152;23;20405;-84
2023/12/15 10:21:31;;;;;;;63.63;26.87;;;10.20;1.00;;;;;;6220136;23;20378;-85
2023/12/15 10:23:57;;;;;;;68.47;27.93;;;10.20;1.00;;;;;;6218264;23;20419;-84
2023/12/15 10:26:23;;;;;;;60.13;24.97;;;10.30;1.00;;;;;;6218056;23;20899;-81
2023/12/15 10:28:52;;;;;;;61.07;27.47;;;10.30;1.00;;;;;;6220132;23;20389;-81
2023/12/15 10:31:18;;;;;;;61.80;26.43;;;10.30;1.00;;;;;;6220189;23;20153;-82
2023/12/15 10:33:45;;;;;;;60.03;29.90;;;10.30;1.00;;;;;;6219747;23;20373;-81
2023/12/15 10:36:13;;;;;;;55.57;25.13;;;10.30;1.00;;;;;;6218050;23;20190;-82
2023/12/15 10:38:39;;;;;;;60.57;26.80;;;10.40;1.00;;;;;;6219940;23;20389;-85
2023/12/15 10:41:07;;;;;;;57.57;25.67;;;10.30;1.00;;;;;;6221525;23;20857;-84
2023/12/15 10:43:34;;;;;;;60.03;25.83;;;10.30;1.00;;;;;;6219725;23;20240;-85
2023/12/15 10:46:01;;;;;;;48.80;26.10;;;10.30;1.00;;;;;;6217895;23;20750;-84
2023/12/15 10:48:30;;;;;;;51.40;26.07;;;10.40;1.00;;;;;;6219908;23;20802;-84
2023/12/15 10:50:58;;;;;;;64.63;24.97;;;10.40;1.00;;;;;;6219476;23;20374;-83
2023/12/15 10:53:24;;;;;;;52.87;25.17;;;10.50;1.00;;;;;;6217003;23;20393;-84
2023/12/15 10:55:51;;;;;;;57.70;27.20;;;10.50;1.00;;;;;;6220103;23;20425;-85
2023/12/15 10:58:17;;;;;;;53.53;23.87;;;10.50;1.00;;;;;;6193521;23;20385;-84
2023/12/15 11:00:42;;;;;;;54.00;23.53;;;10.60;1.00;;;;;;6219598;23;20404;-84
2023/12/15 11:03:12;;;;;;;47.37;24.33;;;10.50;1.00;;;;;;6218279;23;20186;-84
2023/12/15 11:05:40;;;;;;;54.30;23.20;;;10.50;1.00;;;;;;6215286;23;20185;-81
2023/12/15 11:08:06;;;;;;;45.30;25.23;;;10.60;1.00;;;;;;6214739;23;20481;-81
2023/12/15 11:10:32;;;;;;;48.80;22.80;;;10.50;1.00;;;;;;6216015;23;20397;-81
2023/12/15 11:12:58;;;;;;;48.97;24.17;;;10.60;1.00;;;;;;6213999;23;20381;-80
2023/12/15 11:15:23;;;;;;;51.53;24.27;;;10.60;1.00;;;;;;6215232;23;20394;-81
2023/12/15 11:17:54;;;;;;;53.00;24.10;;;10.50;1.00;;;;;;6214432;23;20158;-81
2023/12/15 11:20:23;;;;;;;48.33;24.77;;;10.60;1.00;;;;;;6216025;23;20135;-81
2023/12/15 11:23:07;;;;;;;63.33;27.23;;;10.70;1.00;;;;;;6215887;23;20388;-81
2023/12/15 11:25:36;;;;;;;51.90;24.90;;;10.70;1.00;;;;;;6214963;23;20498;-81
2023/12/15 11:28:11;;;;;;;47.50;24.33;;;10.70;1.00;;;;;;6217595;23;20377;-82
2023/12/15 11:30:41;;;;;;;44.17;23.23;;;10.70;1.00;;;;;;6216983;23;20404;-82
2023/12/15 11:33:32;;;;;;;47.30;23.53;;;10.70;1.00;;;;;;6214241;23;20401;-80
2023/12/15 11:36:06;;;;;;;54.40;25.10;;;10.70;1.00;;;;;;6216862;23;20416;-82
2023/12/15 11:38:33;;;;;;;45.80;23.70;;;10.70;1.00;;;;;;6217058;23;21099;-82
2023/12/15 11:41:00;;;;;;;49.00;24.30;;;10.80;1.00;;;;;;6218399;23;20789;-82
2023/12/15 11:43:28;;;;;;;49.40;25.43;;;10.90;1.00;;;;;;6220345;23;20439;-82
2023/12/15 11:45:54;;;;;;;43.53;23.37;;;10.90;99.90;;;;;;6213452;23;20433;-81
2023/12/15 11:48:22;;;;;;;47.00;24.30;;;10.90;99.90;;;;;;6219170;23;20381;-82
2023/12/15 11:50:48;;;;;;;49.60;22.77;;;10.90;99.90;;;;;;6220698;23;20388;-82
2023/12/15 11:53:14;;;;;;;44.67;25.00;;;10.90;99.90;;;;;;6219350;23;20414;-82
2023/12/15 11:55:44;;;;;;;51.80;24.50;;;11.00;99.90;;;;;;6221209;23;20397;-82
2023/12/15 11:58:10;;;;;;;48.17;23.47;;;11.00;99.90;;;;;;6220022;23;20420;-83
2023/12/15 12:00:36;;;;;;;53.13;25.63;;;11.00;99.90;;;;;;6219371;23;20381;-82
2023/12/15 12:03:03;;;;;;;49.40;26.77;;;11.00;99.90;;;;;;6219481;23;20400;-84
2023/12/15 12:05:29;;;;;;;42.40;24.17;;;11.00;99.90;;;;;;6220493;23;20197;-84
2023/12/15 12:07:59;;;;;;;45.90;24.97;;;11.00;99.90;;;;;;6221843;23;20396;-84
2023/12/15 12:10:31;;;;;;;44.60;25.00;;;11.00;99.90;;;;;;6220051;23;20617;-84
2023/12/15 12:12:58;;;;;;;43.33;23.40;;;11.00;99.90;;;;;;6219048;23;20385;-84
2023/12/15 12:15:24;;;;;;;49.53;24.53;;;11.10;99.90;;;;;;6223524;23;20392;-84
2023/12/15 12:17:50;;;;;;;43.60;23.40;;;11.00;99.90;;;;;;6222226;23;20369;-83
2023/12/15 12:20:16;;;;;;;49.30;23.83;;;11.00;99.90;;;;;;6223200;23;20182;-81
2023/12/15 12:22:43;;;;;;;42.83;23.63;;;11.10;99.90;;;;;;6225517;23;20376;-83
2023/12/15 12:25:16;;;;;;;40.77;23.10;;;11.10;99.90;;;;;;6220014;23;20231;-82
2023/12/15 12:27:42;;;;;;;51.13;24.70;;;11.10;99.90;;;;;;6220944;23;20458;-82
2023/12/15 12:30:12;;;;;;;47.10;24.13;;;11.10;99.90;;;;;;6216699;23;20395;-82
2023/12/15 12:32:39;;;;;;;44.77;22.13;;;11.10;99.90;;;;;;6219391;23;20373;-81
2023/12/15 12:35:05;;;;;;;37.50;22.73;;;11.20;99.90;;;;;;6220862;23;20758;-81